sensor_id;sensor_type;location;lat;lon;timestamp;temperature;humidity
29849;DHT22;16728;50.832;5.590;2022-12-18T00:01:58;-4.00;99.90
29849;DHT22;16728;50.832;5.590;2022-12-18T00:05:01;-4.10;99.90
29849;DHT22;16728;50.832;5.590;2022-12-18T00:08:03;-4.10;99.90
29849;DHT22;16728;50.832;5.590;2022-12-18T00:11:13;-4.10;99.90
29849;DHT22;16728;50.832;5.590;2022-12-18T00:14:15;-4.00;99.90
29849;DHT22;16728;50.832;5.590;2022-12-18T00:17:16;-4.10;99.90
29849;DHT22;16728;50.832;5.590;2022-12-18T00:20:18;-4.20;99.90
29849;DHT22;16728;50.832;5.590;2022-12-18T00:23:27;-4.20;99.90
29849;DHT22;16728;50.832;5.590;2022-12-18T00:26:32;-4.20;99.90
29849;DHT22;16728;50.832;5.590;2022-12-18T00:29:34;-4.20;99.90
29849;DHT22;16728;50.832;5.590;2022-12-18T00:32:36;-4.20;99.90
29849;DHT22;16728;50.832;5.590;2022-12-18T00:35:38;-4.20;99.90
29849;DHT22;16728;50.832;5.590;2022-12-18T00:38:40;-4.20;99.90
29849;DHT22;16728;50.832;5.590;2022-12-18T00:41:43;-4.20;99.90
29849;DHT22;16728;50.832;5.590;2022-12-18T00:45:03;-4.20;99.90
29849;DHT22;16728;50.832;5.590;2022-12-18T00:48:13;-4.20;99.90
29849;DHT22;16728;50.832;5.590;2022-12-18T00:51:15;-4.20;99.90
29849;DHT22;16728;50.832;5.590;2022-12-18T00:54:16;-4.20;99.90
29849;DHT22;16728;50.832;5.590;2022-12-18T00:57:19;-4.20;99.90
29849;DHT22;16728;50.832;5.590;2022-12-18T01:00:21;-4.30;99.90
29849;DHT22;16728;50.832;5.590;2022-12-18T01:03:23;-4.30;99.90
29849;DHT22;16728;50.832;5.590;2022-12-18T01:06:25;-4.40;99.90
29849;DHT22;16728;50.832;5.590;2022-12-18T01:09:27;-4.40;99.90
29849;DHT22;16728;50.832;5.590;2022-12-18T01:12:29;-4.40;99.90
29849;DHT22;16728;50.832;5.590;2022-12-18T01:15:31;-4.50;99.90
29849;DHT22;16728;50.832;5.590;2022-12-18T01:18:33;-4.60;99.90
29849;DHT22;16728;50.832;5.590;2022-12-18T01:21:35;-4.50;99.90
29849;DHT22;16728;50.832;5.590;2022-12-18T01:24:37;-4.40;99.90
29849;DHT22;16728;50.832;5.590;2022-12-18T01:27:39;-4.60;99.90
29849;DHT22;16728;50.832;5.590;2022-12-18T01:30:41;-4.70;99.90
29849;DHT22;16728;50.832;5.590;2022-12-18T01:33:43;-4.70;99.90
29849;DHT22;16728;50.832;5.590;2022-12-18T01:36:45;-4.60;99.90
29849;DHT22;16728;50.832;5.590;2022-12-18T01:39:47;-4.60;99.90
29849;DHT22;16728;50.832;5.590;2022-12-18T01:42:52;-4.60;99.90
29849;DHT22;16728;50.832;5.590;2022-12-18T01:45:54;-4.50;99.90
29849;DHT22;16728;50.832;5.590;2022-12-18T01:48:59;-4.70;99.90
29849;DHT22;16728;50.832;5.590;2022-12-18T01:52:01;-4.60;99.90
29849;DHT22;16728;50.832;5.590;2022-12-18T01:55:05;-4.60;99.90
29849;DHT22;16728;50.832;5.590;2022-12-18T01:58:07;-4.60;99.90
29849;DHT22;16728;50.832;5.590;2022-12-18T02:01:09;-4.70;99.90
29849;DHT22;16728;50.832;5.590;2022-12-18T02:04:22;-4.70;99.90
29849;DHT22;16728;50.832;5.590;2022-12-18T02:08:15;-4.60;99.90
29849;DHT22;16728;50.832;5.590;2022-12-18T02:14:17;-4.60;99.90
29849;DHT22;16728;50.832;5.590;2022-12-18T02:17:35;-4.50;99.90
29849;DHT22;16728;50.832;5.590;2022-12-18T02:27:11;-4.60;99.90
29849;DHT22;16728;50.832;5.590;2022-12-18T02:30:14;-4.70;99.90
29849;DHT22;16728;50.832;5.590;2022-12-18T02:33:19;-4.70;99.90
29849;DHT22;16728;50.832;5.590;2022-12-18T02:36:23;-4.80;99.90
29849;DHT22;16728;50.832;5.590;2022-12-18T02:39:27;-4.70;99.90
29849;DHT22;16728;50.832;5.590;2022-12-18T02:42:31;-4.70;99.90
29849;DHT22;16728;50.832;5.590;2022-12-18T02:45:33;-4.80;99.90
29849;DHT22;16728;50.832;5.590;2022-12-18T02:48:35;-4.80;99.90
29849;DHT22;16728;50.832;5.590;2022-12-18T02:51:50;-4.80;99.90
29849;DHT22;16728;50.832;5.590;2022-12-18T03:05:19;-4.80;99.90
29849;DHT22;16728;50.832;5.590;2022-12-18T03:08:26;-4.90;99.90
29849;DHT22;16728;50.832;5.590;2022-12-18T03:11:33;-4.90;99.90
29849;DHT22;16728;50.832;5.590;2022-12-18T03:18:29;-4.70;99.90
29849;DHT22;16728;50.832;5.590;2022-12-18T03:21:45;-4.60;99.90
29849;DHT22;16728;50.832;5.590;2022-12-18T03:24:48;-4.60;99.90
29849;DHT22;16728;50.832;5.590;2022-12-18T03:27:55;-4.70;99.90
29849;DHT22;16728;50.832;5.590;2022-12-18T03:31:00;-4.60;99.90
29849;DHT22;16728;50.832;5.590;2022-12-18T03:34:09;-4.60;99.90
29849;DHT22;16728;50.832;5.590;2022-12-18T03:37:11;-4.70;99.90
29849;DHT22;16728;50.832;5.590;2022-12-18T03:40:12;-4.70;99.90
29849;DHT22;16728;50.832;5.590;2022-12-18T03:50:22;-4.80;99.90
29849;DHT22;16728;50.832;5.590;2022-12-18T03:53:32;-4.60;99.90
29849;DHT22;16728;50.832;5.590;2022-12-18T03:56:45;-4.50;99.90
29849;DHT22;16728;50.832;5.590;2022-12-18T03:59:52;-4.50;99.90
29849;DHT22;16728;50.832;5.590;2022-12-18T04:02:57;-4.50;99.90
29849;DHT22;16728;50.832;5.590;2022-12-18T04:06:01;-4.50;99.90
29849;DHT22;16728;50.832;5.590;2022-12-18T04:09:03;-4.80;99.90
29849;DHT22;16728;50.832;5.590;2022-12-18T04:12:06;-4.80;99.90
29849;DHT22;16728;50.832;5.590;2022-12-18T04:15:09;-4.80;99.90
29849;DHT22;16728;50.832;5.590;2022-12-18T04:18:11;-4.70;99.90
29849;DHT22;16728;50.832;5.590;2022-12-18T04:21:13;-4.70;99.90
29849;DHT22;16728;50.832;5.590;2022-12-18T04:24:15;-4.40;99.90
29849;DHT22;16728;50.832;5.590;2022-12-18T04:27:17;-4.50;99.90
29849;DHT22;16728;50.832;5.590;2022-12-18T04:30:19;-4.50;99.90
29849;DHT22;16728;50.832;5.590;2022-12-18T04:33:20;-4.80;99.90
29849;DHT22;16728;50.832;5.590;2022-12-18T04:36:22;-4.80;99.90
29849;DHT22;16728;50.832;5.590;2022-12-18T04:39:24;-4.70;99.90
29849;DHT22;16728;50.832;5.590;2022-12-18T04:42:26;-4.80;99.90
29849;DHT22;16728;50.832;5.590;2022-12-18T04:45:30;-4.80;99.90
29849;DHT22;16728;50.832;5.590;2022-12-18T04:48:32;-4.80;99.90
29849;DHT22;16728;50.832;5.590;2022-12-18T04:51:34;-4.80;99.90
29849;DHT22;16728;50.832;5.590;2022-12-18T04:54:36;-4.80;99.90
29849;DHT22;16728;50.832;5.590;2022-12-18T04:57:38;-4.80;99.90
29849;DHT22;16728;50.832;5.590;2022-12-18T05:00:40;-4.80;99.90
29849;DHT22;16728;50.832;5.590;2022-12-18T05:03:42;-4.80;99.90
29849;DHT22;16728;50.832;5.590;2022-12-18T05:06:45;-4.90;99.90
29849;DHT22;16728;50.832;5.590;2022-12-18T05:09:46;-4.80;99.90
29849;DHT22;16728;50.832;5.590;2022-12-18T05:12:48;-4.80;99.90
29849;DHT22;16728;50.832;5.590;2022-12-18T05:16:01;-4.90;99.90
29849;DHT22;16728;50.832;5.590;2022-12-18T05:19:04;-5.00;99.90
29849;DHT22;16728;50.832;5.590;2022-12-18T05:22:06;-5.00;99.90
29849;DHT22;16728;50.832;5.590;2022-12-18T05:25:08;-5.00;99.90
29849;DHT22;16728;50.832;5.590;2022-12-18T05:28:10;-5.00;99.90
29849;DHT22;16728;50.832;5.590;2022-12-18T05:31:12;-5.00;99.90
29849;DHT22;16728;50.832;5.590;2022-12-18T05:34:14;-5.10;99.90
29849;DHT22;16728;50.832;5.590;2022-12-18T05:37:16;-5.20;99.90
29849;DHT22;16728;50.832;5.590;2022-12-18T05:40:18;-5.20;99.90
29849;DHT22;16728;50.832;5.590;2022-12-18T05:43:21;-5.30;99.90
29849;DHT22;16728;50.832;5.590;2022-12-18T05:46:23;-5.20;99.90
29849;DHT22;16728;50.832;5.590;2022-12-18T05:49:26;-5.10;99.90
29849;DHT22;16728;50.832;5.590;2022-12-18T05:52:28;-5.20;99.90
29849;DHT22;16728;50.832;5.590;2022-12-18T05:55:36;-5.20;99.90
29849;DHT22;16728;50.832;5.590;2022-12-18T05:58:38;-5.30;99.90
29849;DHT22;16728;50.832;5.590;2022-12-18T06:01:40;-5.30;99.90
29849;DHT22;16728;50.832;5.590;2022-12-18T06:04:42;-5.30;99.90
29849;DHT22;16728;50.832;5.590;2022-12-18T06:07:44;-5.20;99.90
29849;DHT22;16728;50.832;5.590;2022-12-18T06:10:50;-5.30;99.90
29849;DHT22;16728;50.832;5.590;2022-12-18T06:13:54;-5.50;99.90
29849;DHT22;16728;50.832;5.590;2022-12-18T06:16:59;-5.40;99.90
29849;DHT22;16728;50.832;5.590;2022-12-18T06:20:01;-5.50;99.90
29849;DHT22;16728;50.832;5.590;2022-12-18T06:23:03;-5.40;99.90
29849;DHT22;16728;50.832;5.590;2022-12-18T06:26:08;-5.40;99.90
29849;DHT22;16728;50.832;5.590;2022-12-18T06:29:10;-5.40;99.90
29849;DHT22;16728;50.832;5.590;2022-12-18T06:32:12;-5.50;99.90
29849;DHT22;16728;50.832;5.590;2022-12-18T06:35:14;-5.50;99.90
29849;DHT22;16728;50.832;5.590;2022-12-18T06:38:16;-5.40;99.90
29849;DHT22;16728;50.832;5.590;2022-12-18T06:41:20;-5.30;99.90
29849;DHT22;16728;50.832;5.590;2022-12-18T06:44:22;-5.30;99.90
29849;DHT22;16728;50.832;5.590;2022-12-18T06:47:24;-5.40;99.90
29849;DHT22;16728;50.832;5.590;2022-12-18T06:50:26;-5.40;99.90
29849;DHT22;16728;50.832;5.590;2022-12-18T06:53:28;-5.50;99.90
29849;DHT22;16728;50.832;5.590;2022-12-18T06:56:30;-5.40;99.90
29849;DHT22;16728;50.832;5.590;2022-12-18T06:59:32;-5.40;99.90
29849;DHT22;16728;50.832;5.590;2022-12-18T07:02:34;-5.50;99.90
29849;DHT22;16728;50.832;5.590;2022-12-18T07:05:40;-5.50;99.90
29849;DHT22;16728;50.832;5.590;2022-12-18T07:08:42;-5.60;99.90
29849;DHT22;16728;50.832;5.590;2022-12-18T07:11:45;-5.50;99.90
29849;DHT22;16728;50.832;5.590;2022-12-18T07:14:46;-5.40;99.90
29849;DHT22;16728;50.832;5.590;2022-12-18T07:17:48;-5.30;99.90
29849;DHT22;16728;50.832;5.590;2022-12-18T07:20:50;-5.40;99.90
29849;DHT22;16728;50.832;5.590;2022-12-18T07:23:52;-5.40;99.90
29849;DHT22;16728;50.832;5.590;2022-12-18T07:26:54;-5.40;99.90
29849;DHT22;16728;50.832;5.590;2022-12-18T07:29:56;-5.40;99.90
29849;DHT22;16728;50.832;5.590;2022-12-18T07:32:57;-5.40;99.90
29849;DHT22;16728;50.832;5.590;2022-12-18T07:36:00;-5.40;99.90
29849;DHT22;16728;50.832;5.590;2022-12-18T07:39:02;-5.40;99.90
29849;DHT22;16728;50.832;5.590;2022-12-18T07:42:04;-5.60;99.90
29849;DHT22;16728;50.832;5.590;2022-12-18T07:45:25;-5.40;99.90
29849;DHT22;16728;50.832;5.590;2022-12-18T07:48:28;-5.30;99.90
29849;DHT22;16728;50.832;5.590;2022-12-18T07:51:30;-5.40;99.90
29849;DHT22;16728;50.832;5.590;2022-12-18T07:54:32;-5.40;99.90
29849;DHT22;16728;50.832;5.590;2022-12-18T07:57:34;-5.30;99.90
29849;DHT22;16728;50.832;5.590;2022-12-18T08:00:51;-5.30;99.90
29849;DHT22;16728;50.832;5.590;2022-12-18T08:03:54;-5.30;99.90
29849;DHT22;16728;50.832;5.590;2022-12-18T08:06:55;-5.20;99.90
29849;DHT22;16728;50.832;5.590;2022-12-18T08:09:58;-5.30;99.90
29849;DHT22;16728;50.832;5.590;2022-12-18T08:13:00;-5.20;99.90
29849;DHT22;16728;50.832;5.590;2022-12-18T08:16:07;-5.30;99.90
29849;DHT22;16728;50.832;5.590;2022-12-18T08:19:09;-5.30;99.90
29849;DHT22;16728;50.832;5.590;2022-12-18T08:22:11;-5.20;99.90
29849;DHT22;16728;50.832;5.590;2022-12-18T08:25:13;-5.20;99.90
29849;DHT22;16728;50.832;5.590;2022-12-18T08:28:15;-5.30;99.90
29849;DHT22;16728;50.832;5.590;2022-12-18T08:31:18;-5.20;99.90
29849;DHT22;16728;50.832;5.590;2022-12-18T08:34:21;-5.00;99.90
29849;DHT22;16728;50.832;5.590;2022-12-18T08:37:23;-5.00;99.90
29849;DHT22;16728;50.832;5.590;2022-12-18T08:40:25;-5.00;99.90
29849;DHT22;16728;50.832;5.590;2022-12-18T08:43:27;-4.90;99.90
29849;DHT22;16728;50.832;5.590;2022-12-18T08:46:48;-4.80;99.90
29849;DHT22;16728;50.832;5.590;2022-12-18T08:49:50;-4.70;99.90
29849;DHT22;16728;50.832;5.590;2022-12-18T08:52:52;-4.80;99.90
29849;DHT22;16728;50.832;5.590;2022-12-18T08:55:54;-4.80;99.90
29849;DHT22;16728;50.832;5.590;2022-12-18T08:58:57;-4.70;99.90
29849;DHT22;16728;50.832;5.590;2022-12-18T09:01:59;-4.60;99.90
29849;DHT22;16728;50.832;5.590;2022-12-18T09:05:01;-4.50;99.90
29849;DHT22;16728;50.832;5.590;2022-12-18T09:08:03;-4.50;99.90
29849;DHT22;16728;50.832;5.590;2022-12-18T09:11:11;-4.30;99.90
29849;DHT22;16728;50.832;5.590;2022-12-18T09:14:14;-4.20;99.90
29849;DHT22;16728;50.832;5.590;2022-12-18T09:17:16;-4.30;99.90
29849;DHT22;16728;50.832;5.590;2022-12-18T09:20:18;-4.10;99.90
29849;DHT22;16728;50.832;5.590;2022-12-18T09:23:21;-4.10;99.90
29849;DHT22;16728;50.832;5.590;2022-12-18T09:26:24;-4.00;99.90
29849;DHT22;16728;50.832;5.590;2022-12-18T09:29:26;-3.80;99.90
29849;DHT22;16728;50.832;5.590;2022-12-18T09:32:28;-3.80;99.90
29849;DHT22;16728;50.832;5.590;2022-12-18T09:35:30;-3.70;99.90
29849;DHT22;16728;50.832;5.590;2022-12-18T09:38:32;-3.70;99.90
29849;DHT22;16728;50.832;5.590;2022-12-18T09:41:47;-3.70;99.90
29849;DHT22;16728;50.832;5.590;2022-12-18T09:44:53;-3.60;99.90
29849;DHT22;16728;50.832;5.590;2022-12-18T09:47:56;-3.60;99.90
29849;DHT22;16728;50.832;5.590;2022-12-18T09:51:00;-3.60;99.90
29849;DHT22;16728;50.832;5.590;2022-12-18T09:54:07;-3.60;99.90
29849;DHT22;16728;50.832;5.590;2022-12-18T09:57:22;-3.40;99.90
29849;DHT22;16728;50.832;5.590;2022-12-18T10:00:25;-3.40;99.90
29849;DHT22;16728;50.832;5.590;2022-12-18T10:03:27;-3.30;99.90
29849;DHT22;16728;50.832;5.590;2022-12-18T10:06:38;-3.30;99.90
29849;DHT22;16728;50.832;5.590;2022-12-18T10:09:59;-3.20;99.90
29849;DHT22;16728;50.832;5.590;2022-12-18T10:16:41;-3.00;99.90
29849;DHT22;16728;50.832;5.590;2022-12-18T10:20:10;-2.90;99.90
29849;DHT22;16728;50.832;5.590;2022-12-18T10:23:22;-2.70;99.90
29849;DHT22;16728;50.832;5.590;2022-12-18T10:26:27;-2.50;99.90
29849;DHT22;16728;50.832;5.590;2022-12-18T10:29:29;-2.60;99.90
29849;DHT22;16728;50.832;5.590;2022-12-18T10:32:31;-2.70;99.90
29849;DHT22;16728;50.832;5.590;2022-12-18T10:35:33;-2.60;99.90
29849;DHT22;16728;50.832;5.590;2022-12-18T10:38:37;-2.50;99.90
29849;DHT22;16728;50.832;5.590;2022-12-18T10:41:39;-2.40;99.90
29849;DHT22;16728;50.832;5.590;2022-12-18T10:44:41;-2.50;99.90
29849;DHT22;16728;50.832;5.590;2022-12-18T10:47:52;-2.30;99.90
29849;DHT22;16728;50.832;5.590;2022-12-18T10:50:54;-2.30;99.90
29849;DHT22;16728;50.832;5.590;2022-12-18T10:54:21;-2.20;99.90
29849;DHT22;16728;50.832;5.590;2022-12-18T10:57:36;-2.20;99.90
29849;DHT22;16728;50.832;5.590;2022-12-18T11:00:38;-2.20;99.90
29849;DHT22;16728;50.832;5.590;2022-12-18T11:03:45;-2.10;99.90
29849;DHT22;16728;50.832;5.590;2022-12-18T11:07:07;-2.10;99.90
29849;DHT22;16728;50.832;5.590;2022-12-18T11:10:16;-2.00;99.90
29849;DHT22;16728;50.832;5.590;2022-12-18T11:13:21;-1.90;99.90
29849;DHT22;16728;50.832;5.590;2022-12-18T11:16:24;-1.90;99.90
29849;DHT22;16728;50.832;5.590;2022-12-18T11:22:35;-1.80;99.90
29849;DHT22;16728;50.832;5.590;2022-12-18T11:25:38;-1.80;99.90
29849;DHT22;16728;50.832;5.590;2022-12-18T11:28:52;-1.70;99.90
29849;DHT22;16728;50.832;5.590;2022-12-18T11:38:45;-1.60;99.90
29849;DHT22;16728;50.832;5.590;2022-12-18T11:42:27;-1.60;99.90
29849;DHT22;16728;50.832;5.590;2022-12-18T11:45:33;-1.50;99.90
29849;DHT22;16728;50.832;5.590;2022-12-18T11:49:09;-1.50;99.90
29849;DHT22;16728;50.832;5.590;2022-12-18T11:52:16;-1.40;99.90
29849;DHT22;16728;50.832;5.590;2022-12-18T11:58:46;-1.30;99.90
29849;DHT22;16728;50.832;5.590;2022-12-18T12:02:03;-1.40;99.90
29849;DHT22;16728;50.832;5.590;2022-12-18T12:12:17;-1.30;99.90
29849;DHT22;16728;50.832;5.590;2022-12-18T12:32:53;-1.30;99.90
29849;DHT22;16728;50.832;5.590;2022-12-18T12:39:25;-1.20;99.90
29849;DHT22;16728;50.832;5.590;2022-12-18T12:42:39;-1.20;99.90
29849;DHT22;16728;50.832;5.590;2022-12-18T12:46:10;-1.10;99.90
29849;DHT22;16728;50.832;5.590;2022-12-18T12:49:17;-1.10;99.90
29849;DHT22;16728;50.832;5.590;2022-12-18T12:52:38;-1.00;99.90
29849;DHT22;16728;50.832;5.590;2022-12-18T12:55:42;-0.90;99.90
29849;DHT22;16728;50.832;5.590;2022-12-18T13:08:52;-0.70;99.90
29849;DHT22;16728;50.832;5.590;2022-12-18T13:11:57;-0.70;99.90
29849;DHT22;16728;50.832;5.590;2022-12-18T13:18:52;-0.60;99.90
29849;DHT22;16728;50.832;5.590;2022-12-18T13:21:55;-0.70;99.90
29849;DHT22;16728;50.832;5.590;2022-12-18T13:24:58;-0.70;99.90
29849;DHT22;16728;50.832;5.590;2022-12-18T13:28:10;-0.60;99.90
29849;DHT22;16728;50.832;5.590;2022-12-18T13:34:36;-0.60;99.90
29849;DHT22;16728;50.832;5.590;2022-12-18T13:37:43;-0.60;99.90
29849;DHT22;16728;50.832;5.590;2022-12-18T13:43:52;-0.60;99.90
29849;DHT22;16728;50.832;5.590;2022-12-18T13:46:55;-0.70;99.90
29849;DHT22;16728;50.832;5.590;2022-12-18T13:49:57;-0.80;99.90
29849;DHT22;16728;50.832;5.590;2022-12-18T13:52:59;-0.80;99.90
29849;DHT22;16728;50.832;5.590;2022-12-18T13:56:02;-0.70;99.90
29849;DHT22;16728;50.832;5.590;2022-12-18T14:02:21;-0.80;99.90
29849;DHT22;16728;50.832;5.590;2022-12-18T14:08:33;-0.60;99.90
29849;DHT22;16728;50.832;5.590;2022-12-18T14:11:37;-0.50;99.90
29849;DHT22;16728;50.832;5.590;2022-12-18T14:14:46;-0.60;99.90
29849;DHT22;16728;50.832;5.590;2022-12-18T14:18:00;-0.70;99.90
29849;DHT22;16728;50.832;5.590;2022-12-18T14:21:03;-0.60;99.90
29849;DHT22;16728;50.832;5.590;2022-12-18T14:27:28;-0.70;99.90
29849;DHT22;16728;50.832;5.590;2022-12-18T14:30:41;-0.70;99.90
29849;DHT22;16728;50.832;5.590;2022-12-18T14:33:43;-0.60;99.90
29849;DHT22;16728;50.832;5.590;2022-12-18T14:36:54;-0.60;99.90
29849;DHT22;16728;50.832;5.590;2022-12-18T14:40:04;-0.50;99.90
29849;DHT22;16728;50.832;5.590;2022-12-18T14:43:12;-0.50;99.90
29849;DHT22;16728;50.832;5.590;2022-12-18T14:46:36;-0.50;99.90
29849;DHT22;16728;50.832;5.590;2022-12-18T14:49:44;-0.60;99.90
29849;DHT22;16728;50.832;5.590;2022-12-18T14:52:46;-0.70;99.90
29849;DHT22;16728;50.832;5.590;2022-12-18T14:55:49;-0.70;99.90
29849;DHT22;16728;50.832;5.590;2022-12-18T14:58:54;-0.60;99.90
29849;DHT22;16728;50.832;5.590;2022-12-18T15:05:18;-0.70;99.90
29849;DHT22;16728;50.832;5.590;2022-12-18T15:08:35;-0.70;99.90
29849;DHT22;16728;50.832;5.590;2022-12-18T15:14:42;-0.60;99.90
29849;DHT22;16728;50.832;5.590;2022-12-18T15:17:44;-0.60;99.90
29849;DHT22;16728;50.832;5.590;2022-12-18T15:20:57;-0.60;99.90
29849;DHT22;16728;50.832;5.590;2022-12-18T15:24:00;-0.50;99.90
29849;DHT22;16728;50.832;5.590;2022-12-18T15:27:02;-0.40;99.90
29849;DHT22;16728;50.832;5.590;2022-12-18T15:33:27;-0.40;99.90
29849;DHT22;16728;50.832;5.590;2022-12-18T15:36:31;-0.40;99.90
29849;DHT22;16728;50.832;5.590;2022-12-18T15:39:33;-0.40;99.90
29849;DHT22;16728;50.832;5.590;2022-12-18T15:42:37;-0.30;99.90
29849;DHT22;16728;50.832;5.590;2022-12-18T15:45:57;-0.30;99.90
29849;DHT22;16728;50.832;5.590;2022-12-18T15:48:59;-0.20;99.90
29849;DHT22;16728;50.832;5.590;2022-12-18T15:52:04;-0.20;99.90
29849;DHT22;16728;50.832;5.590;2022-12-18T15:55:18;-0.10;99.90
29849;DHT22;16728;50.832;5.590;2022-12-18T15:58:40;-0.10;99.90
29849;DHT22;16728;50.832;5.590;2022-12-18T16:01:44;-0.10;99.90
29849;DHT22;16728;50.832;5.590;2022-12-18T16:04:47;0.00;99.90
29849;DHT22;16728;50.832;5.590;2022-12-18T16:07:48;0.00;99.90
29849;DHT22;16728;50.832;5.590;2022-12-18T16:10:50;-0.10;99.90
29849;DHT22;16728;50.832;5.590;2022-12-18T16:13:53;-0.20;99.90
29849;DHT22;16728;50.832;5.590;2022-12-18T16:16:57;-0.20;99.90
29849;DHT22;16728;50.832;5.590;2022-12-18T16:20:00;-0.20;99.90
29849;DHT22;16728;50.832;5.590;2022-12-18T16:23:01;-0.20;99.90
29849;DHT22;16728;50.832;5.590;2022-12-18T16:26:03;-0.20;99.90
29849;DHT22;16728;50.832;5.590;2022-12-18T16:29:06;-0.20;99.90
29849;DHT22;16728;50.832;5.590;2022-12-18T16:32:13;-0.30;99.90
29849;DHT22;16728;50.832;5.590;2022-12-18T16:35:16;-0.30;99.90
29849;DHT22;16728;50.832;5.590;2022-12-18T16:38:18;-0.30;99.90
29849;DHT22;16728;50.832;5.590;2022-12-18T16:41:20;-0.30;99.90
29849;DHT22;16728;50.832;5.590;2022-12-18T16:44:34;-0.30;99.90
29849;DHT22;16728;50.832;5.590;2022-12-18T16:47:36;-0.30;99.90
29849;DHT22;16728;50.832;5.590;2022-12-18T16:50:38;-0.40;99.90
29849;DHT22;16728;50.832;5.590;2022-12-18T16:53:40;-0.30;99.90
29849;DHT22;16728;50.832;5.590;2022-12-18T16:56:43;-0.30;99.90
29849;DHT22;16728;50.832;5.590;2022-12-18T16:59:46;-0.30;99.90
29849;DHT22;16728;50.832;5.590;2022-12-18T17:02:49;-0.20;99.90
29849;DHT22;16728;50.832;5.590;2022-12-18T17:05:51;-0.10;99.90
29849;DHT22;16728;50.832;5.590;2022-12-18T17:08:59;-0.10;99.90
29849;DHT22;16728;50.832;5.590;2022-12-18T17:12:01;0.10;99.90
29849;DHT22;16728;50.832;5.590;2022-12-18T17:15:05;0.20;99.90
29849;DHT22;16728;50.832;5.590;2022-12-18T17:18:07;0.20;99.90
29849;DHT22;16728;50.832;5.590;2022-12-18T17:21:10;0.30;99.90
29849;DHT22;16728;50.832;5.590;2022-12-18T17:24:12;0.30;99.90
29849;DHT22;16728;50.832;5.590;2022-12-18T17:27:14;0.30;99.90
29849;DHT22;16728;50.832;5.590;2022-12-18T17:30:16;0.20;99.90
29849;DHT22;16728;50.832;5.590;2022-12-18T17:33:18;0.20;99.90
29849;DHT22;16728;50.832;5.590;2022-12-18T17:36:20;0.30;99.90
29849;DHT22;16728;50.832;5.590;2022-12-18T17:39:23;0.20;99.90
29849;DHT22;16728;50.832;5.590;2022-12-18T17:42:25;0.30;99.90
29849;DHT22;16728;50.832;5.590;2022-12-18T17:45:27;0.40;99.90
29849;DHT22;16728;50.832;5.590;2022-12-18T17:48:29;0.50;99.90
29849;DHT22;16728;50.832;5.590;2022-12-18T17:51:31;0.60;99.90
29849;DHT22;16728;50.832;5.590;2022-12-18T17:54:33;0.60;99.90
29849;DHT22;16728;50.832;5.590;2022-12-18T17:57:36;0.60;99.90
29849;DHT22;16728;50.832;5.590;2022-12-18T18:00:38;0.70;99.90
29849;DHT22;16728;50.832;5.590;2022-12-18T18:03:40;0.70;99.90
29849;DHT22;16728;50.832;5.590;2022-12-18T18:06:43;0.70;99.90
29849;DHT22;16728;50.832;5.590;2022-12-18T18:09:44;0.80;99.90
29849;DHT22;16728;50.832;5.590;2022-12-18T18:12:47;0.80;99.90
29849;DHT22;16728;50.832;5.590;2022-12-18T18:16:09;0.80;99.90
29849;DHT22;16728;50.832;5.590;2022-12-18T18:19:14;0.80;99.90
29849;DHT22;16728;50.832;5.590;2022-12-18T18:22:16;0.90;99.90
29849;DHT22;16728;50.832;5.590;2022-12-18T18:25:19;1.00;99.90
29849;DHT22;16728;50.832;5.590;2022-12-18T18:28:22;0.90;99.90
29849;DHT22;16728;50.832;5.590;2022-12-18T18:31:24;1.00;99.90
29849;DHT22;16728;50.832;5.590;2022-12-18T18:34:29;1.00;99.90
29849;DHT22;16728;50.832;5.590;2022-12-18T18:37:31;1.00;99.90
29849;DHT22;16728;50.832;5.590;2022-12-18T18:40:33;1.00;99.90
29849;DHT22;16728;50.832;5.590;2022-12-18T18:43:35;1.00;99.90
29849;DHT22;16728;50.832;5.590;2022-12-18T18:46:37;1.10;99.90
29849;DHT22;16728;50.832;5.590;2022-12-18T18:49:39;1.10;99.90
29849;DHT22;16728;50.832;5.590;2022-12-18T18:52:41;1.10;99.90
29849;DHT22;16728;50.832;5.590;2022-12-18T18:55:45;1.10;99.90
29849;DHT22;16728;50.832;5.590;2022-12-18T18:59:04;1.20;99.90
29849;DHT22;16728;50.832;5.590;2022-12-18T19:02:10;1.10;99.90
29849;DHT22;16728;50.832;5.590;2022-12-18T19:05:13;1.20;99.90
29849;DHT22;16728;50.832;5.590;2022-12-18T19:08:17;1.20;99.90
29849;DHT22;16728;50.832;5.590;2022-12-18T19:11:24;1.20;99.90
29849;DHT22;16728;50.832;5.590;2022-12-18T19:14:45;1.10;99.90
29849;DHT22;16728;50.832;5.590;2022-12-18T19:17:46;1.10;99.90
29849;DHT22;16728;50.832;5.590;2022-12-18T19:21:03;1.10;99.90
29849;DHT22;16728;50.832;5.590;2022-12-18T19:24:05;1.20;99.90
29849;DHT22;16728;50.832;5.590;2022-12-18T19:27:09;1.10;99.90
29849;DHT22;16728;50.832;5.590;2022-12-18T19:30:11;1.10;99.90
29849;DHT22;16728;50.832;5.590;2022-12-18T19:33:13;1.10;99.90
29849;DHT22;16728;50.832;5.590;2022-12-18T19:36:37;1.20;99.90
29849;DHT22;16728;50.832;5.590;2022-12-18T19:39:39;1.20;99.90
29849;DHT22;16728;50.832;5.590;2022-12-18T19:42:41;1.20;99.90
29849;DHT22;16728;50.832;5.590;2022-12-18T19:45:43;1.30;99.90
29849;DHT22;16728;50.832;5.590;2022-12-18T19:48:46;1.20;99.90
29849;DHT22;16728;50.832;5.590;2022-12-18T19:51:47;1.30;99.90
29849;DHT22;16728;50.832;5.590;2022-12-18T19:54:51;1.30;99.90
29849;DHT22;16728;50.832;5.590;2022-12-18T19:57:53;1.30;99.90
29849;DHT22;16728;50.832;5.590;2022-12-18T20:00:55;1.40;99.90
29849;DHT22;16728;50.832;5.590;2022-12-18T20:03:57;1.40;99.90
29849;DHT22;16728;50.832;5.590;2022-12-18T20:07:01;1.40;99.90
29849;DHT22;16728;50.832;5.590;2022-12-18T20:10:06;1.50;99.90
29849;DHT22;16728;50.832;5.590;2022-12-18T20:13:10;1.60;99.90
29849;DHT22;16728;50.832;5.590;2022-12-18T20:16:11;1.60;99.90
29849;DHT22;16728;50.832;5.590;2022-12-18T20:19:13;1.60;99.90
29849;DHT22;16728;50.832;5.590;2022-12-18T20:22:16;1.60;99.90
29849;DHT22;16728;50.832;5.590;2022-12-18T20:25:38;1.60;99.90
29849;DHT22;16728;50.832;5.590;2022-12-18T20:28:44;1.60;99.90
29849;DHT22;16728;50.832;5.590;2022-12-18T20:31:47;1.60;99.90
29849;DHT22;16728;50.832;5.590;2022-12-18T20:34:49;1.60;99.90
29849;DHT22;16728;50.832;5.590;2022-12-18T20:37:51;1.60;99.90
29849;DHT22;16728;50.832;5.590;2022-12-18T20:40:54;1.50;99.90
29849;DHT22;16728;50.832;5.590;2022-12-18T20:43:56;1.60;99.90
29849;DHT22;16728;50.832;5.590;2022-12-18T20:46:58;1.60;99.90
29849;DHT22;16728;50.832;5.590;2022-12-18T20:50:09;1.70;99.90
29849;DHT22;16728;50.832;5.590;2022-12-18T20:53:11;1.60;99.90
29849;DHT22;16728;50.832;5.590;2022-12-18T20:56:19;1.60;99.90
29849;DHT22;16728;50.832;5.590;2022-12-18T20:59:22;1.70;99.90
29849;DHT22;16728;50.832;5.590;2022-12-18T21:02:26;1.70;99.90
29849;DHT22;16728;50.832;5.590;2022-12-18T21:05:28;1.70;99.90
29849;DHT22;16728;50.832;5.590;2022-12-18T21:08:30;1.70;99.90
29849;DHT22;16728;50.832;5.590;2022-12-18T21:11:32;1.70;99.90
29849;DHT22;16728;50.832;5.590;2022-12-18T21:14:53;1.70;99.90
29849;DHT22;16728;50.832;5.590;2022-12-18T21:17:55;1.70;99.90
29849;DHT22;16728;50.832;5.590;2022-12-18T21:20:57;1.70;99.90
29849;DHT22;16728;50.832;5.590;2022-12-18T21:23:59;1.70;99.90
29849;DHT22;16728;50.832;5.590;2022-12-18T21:27:04;1.70;99.90
29849;DHT22;16728;50.832;5.590;2022-12-18T21:30:09;1.70;99.90